Time;durP1;ratioP1;P1;durP2;ratioP2;P2;SDS_P1;SDS_P2;PMS_P1;PMS_P2;Temp;Humidity;BMP_temperature;BMP_pressure;BME280_temperature;BME280_humidity;BME280_pressure;Samples;Min_cycle;Max_cycle;Signal;HPM_P1;HPM_P2
2024/01/28 00:01:17;;;;;;;9.48;5.50;;;;;;;;;;5082589;28;20045;-74
2024/01/28 00:03:45;;;;;;;11.35;5.72;;;;;;;;;;5082222;28;20304;-74
2024/01/28 00:06:11;;;;;;;10.32;5.20;;;;;;;;;;5082384;28;20049;-77
2024/01/28 00:08:38;;;;;;;7.97;4.85;;;;;;;;;;5082782;28;20044;-77
2024/01/28 00:11:05;;;;;;;10.32;5.30;;;;;;;;;;5082501;28;20076;-76
2024/01/28 00:13:34;;;;;;;8.27;4.10;;;;;;;;;;5082160;28;20053;-76
2024/01/28 00:16:01;;;;;;;6.75;3.97;;;;;;;;;;5082813;28;20083;-74
2024/01/28 00:18:29;;;;;;;8.90;3.75;;;;;;;;;;5082565;28;20044;-75
2024/01/28 00:20:56;;;;;;;6.70;3.85;;;;;;;;;;5082413;28;20132;-73
2024/01/28 00:23:23;;;;;;;4.97;2.55;;;;;;;;;;5082310;28;20104;-74
2024/01/28 00:25:50;;;;;;;4.95;2.53;;;;;;;;;;5080997;28;20048;-73
2024/01/28 00:28:19;;;;;;;4.57;2.50;;;;;;;;;;5082160;28;20052;-75
2024/01/28 00:30:46;;;;;;;4.22;2.15;;;;;;;;;;5082396;28;20090;-73
2024/01/28 00:33:12;;;;;;;3.97;2.10;;;;;;;;;;5082260;28;20111;-72
2024/01/28 00:35:40;;;;;;;4.60;1.73;;;;;;;;;;5064437;28;20386;-74
2024/01/28 00:38:06;;;;;;;2.33;1.40;;;;;;;;;;5081894;28;20049;-73
2024/01/28 00:40:33;;;;;;;3.17;1.45;;;;;;;;;;5082014;28;20054;-73
2024/01/28 00:43:02;;;;;;;2.55;1.40;;;;;;;;;;5064427;28;20075;-74
2024/01/28 00:45:31;;;;;;;3.03;1.40;;;;;;;;;;5081916;28;20052;-75
2024/01/28 00:47:58;;;;;;;2.20;1.10;;;;;;;;;;5081635;28;20066;-73
2024/01/28 00:50:25;;;;;;;2.05;1.10;;;;;;;;;;5081687;28;20052;-73
2024/01/28 00:52:52;;;;;;;2.40;1.10;;;;;;;;;;5081630;28;20048;-73
2024/01/28 00:55:22;;;;;;;2.30;1.00;;;;;;;;;;5081539;28;20045;-73
2024/01/28 00:57:51;;;;;;;1.80;1.00;;;;;;;;;;5081685;28;20302;-73
2024/01/28 01:00:18;;;;;;;2.97;0.90;;;;;;;;;;5081725;28;20108;-73
2024/01/28 01:02:45;;;;;;;2.13;0.80;;;;;;;;;;5081711;28;20045;-73
2024/01/28 01:05:11;;;;;;;1.45;0.75;;;;;;;;;;5081414;28;20044;-73
2024/01/28 01:07:38;;;;;;;1.70;0.90;;;;;;;;;;5081640;28;20045;-74
2024/01/28 01:10:05;;;;;;;2.10;0.90;;;;;;;;;;5080939;28;20090;-73
2024/01/28 01:12:32;;;;;;;1.65;0.80;;;;;;;;;;5081226;28;20086;-73
2024/01/28 01:14:58;;;;;;;1.60;0.73;;;;;;;;;;5081330;28;20044;-73
2024/01/28 01:17:26;;;;;;;1.67;0.80;;;;;;;;;;5063687;28;20228;-73
2024/01/28 01:19:52;;;;;;;1.58;0.70;;;;;;;;;;5081500;28;20045;-73
2024/01/28 01:22:19;;;;;;;2.03;0.95;;;;;;;;;;5081636;28;20240;-73
2024/01/28 01:24:46;;;;;;;1.90;0.85;;;;;;;;;;5080632;28;20044;-73
2024/01/28 01:27:13;;;;;;;1.30;0.90;;;;;;;;;;5081159;28;20112;-73
2024/01/28 01:29:40;;;;;;;1.92;0.77;;;;;;;;;;5076282;28;20044;-73
2024/01/28 01:32:06;;;;;;;1.92;1.05;;;;;;;;;;5069554;28;20048;-73
2024/01/28 01:34:33;;;;;;;1.33;0.60;;;;;;;;;;5069312;28;20388;-73
2024/01/28 01:37:00;;;;;;;2.20;0.90;;;;;;;;;;5069175;28;20052;-73
2024/01/28 01:39:27;;;;;;;2.88;1.10;;;;;;;;;;5068750;28;20051;-73
2024/01/28 01:41:53;;;;;;;1.45;0.80;;;;;;;;;;5069438;28;20217;-76
2024/01/28 01:44:20;;;;;;;2.42;1.05;;;;;;;;;;5068874;28;20045;-73
2024/01/28 01:46:48;;;;;;;1.30;0.80;;;;;;;;;;5069062;28;20045;-73
2024/01/28 01:49:15;;;;;;;1.08;0.73;;;;;;;;;;5068583;28;20045;-73
2024/01/28 01:51:42;;;;;;;2.30;0.82;;;;;;;;;;5068725;28;20064;-75
2024/01/28 01:54:10;;;;;;;2.15;1.35;;;;;;;;;;5068656;28;20503;-74
2024/01/28 01:56:38;;;;;;;1.20;0.68;;;;;;;;;;5069095;28;20041;-74
2024/01/28 01:59:05;;;;;;;1.70;0.90;;;;;;;;;;5068953;28;20093;-73
2024/01/28 02:01:34;;;;;;;2.25;0.80;;;;;;;;;;5068741;28;20390;-74
2024/01/28 02:04:01;;;;;;;1.17;0.60;;;;;;;;;;5068814;28;20045;-74
2024/01/28 02:06:28;;;;;;;1.25;0.70;;;;;;;;;;5068698;28;20681;-73
2024/01/28 02:08:59;;;;;;;1.48;0.70;;;;;;;;;;5068449;28;20056;-73
2024/01/28 02:11:26;;;;;;;1.70;0.80;;;;;;;;;;5068900;28;20084;-73
2024/01/28 02:13:56;;;;;;;2.08;0.70;;;;;;;;;;5068582;28;20052;-73
2024/01/28 02:16:25;;;;;;;1.48;0.80;;;;;;;;;;5068733;28;20672;-74
2024/01/28 02:18:52;;;;;;;2.70;0.80;;;;;;;;;;5068748;28;20041;-73
2024/01/28 02:21:22;;;;;;;2.07;1.07;;;;;;;;;;5068918;28;20068;-73
2024/01/28 02:23:49;;;;;;;1.88;0.80;;;;;;;;;;5068343;28;20041;-74
2024/01/28 02:26:16;;;;;;;1.48;0.77;;;;;;;;;;5068363;28;20048;-72
2024/01/28 02:28:42;;;;;;;0.73;0.50;;;;;;;;;;5068714;28;20041;-73
2024/01/28 02:31:09;;;;;;;2.53;0.90;;;;;;;;;;5068302;28;20055;-73
2024/01/28 02:33:36;;;;;;;1.77;0.70;;;;;;;;;;5068577;28;20059;-73
2024/01/28 02:36:03;;;;;;;1.38;0.80;;;;;;;;;;5068316;28;20076;-73
2024/01/28 02:38:33;;;;;;;1.23;0.77;;;;;;;;;;5068482;28;20047;-73
2024/01/28 02:41:03;;;;;;;1.33;0.75;;;;;;;;;;5068033;28;20052;-75
2024/01/28 02:43:32;;;;;;;1.90;0.80;;;;;;;;;;5068269;28;20072;-73
2024/01/28 02:45:59;;;;;;;2.47;0.88;;;;;;;;;;5068180;28;20049;-74
2024/01/28 02:48:29;;;;;;;2.03;1.02;;;;;;;;;;5051351;28;20044;-73
2024/01/28 02:50:58;;;;;;;0.68;0.60;;;;;;;;;;5072493;28;20159;-74
2024/01/28 02:53:27;;;;;;;1.63;0.80;;;;;;;;;;5072239;28;20041;-73
2024/01/28 02:55:59;;;;;;;3.17;1.00;;;;;;;;;;5072324;28;20055;-74
2024/01/28 02:58:29;;;;;;;1.35;0.77;;;;;;;;;;5072465;28;20106;-73
2024/01/28 03:00:58;;;;;;;1.42;0.70;;;;;;;;;;5072309;28;20044;-73
2024/01/28 03:03:25;;;;;;;1.77;0.70;;;;;;;;;;5072249;28;20135;-73
2024/01/28 03:05:51;;;;;;;2.03;0.82;;;;;;;;;;5071943;28;20604;-73
2024/01/28 03:08:18;;;;;;;1.98;0.60;;;;;;;;;;5072373;28;20051;-75
2024/01/28 03:10:45;;;;;;;1.10;0.60;;;;;;;;;;5071489;28;20076;-75
2024/01/28 03:13:12;;;;;;;1.08;0.70;;;;;;;;;;5071767;28;20602;-74
2024/01/28 03:15:38;;;;;;;1.15;0.63;;;;;;;;;;5071814;28;20040;-73
2024/01/28 03:18:06;;;;;;;1.38;0.77;;;;;;;;;;5071834;28;20055;-74
2024/01/28 03:20:32;;;;;;;1.23;0.70;;;;;;;;;;5071977;28;20136;-75
2024/01/28 03:22:59;;;;;;;1.95;0.85;;;;;;;;;;5071802;28;20052;-74
2024/01/28 03:25:26;;;;;;;2.10;1.10;;;;;;;;;;5071205;28;20135;-74
2024/01/28 03:27:54;;;;;;;2.15;1.35;;;;;;;;;;5071722;28;20441;-74
2024/01/28 03:30:20;;;;;;;1.40;0.90;;;;;;;;;;5071370;28;20036;-75
2024/01/28 03:32:47;;;;;;;1.60;1.00;;;;;;;;;;5071430;28;20496;-78
2024/01/28 03:35:17;;;;;;;2.65;0.80;;;;;;;;;;5070907;28;20044;-77
2024/01/28 03:37:44;;;;;;;2.58;1.10;;;;;;;;;;5071713;28;20048;-77
2024/01/28 03:40:11;;;;;;;2.33;1.27;;;;;;;;;;5071495;28;20041;-74
2024/01/28 03:42:38;;;;;;;3.67;1.10;;;;;;;;;;5071712;28;20102;-76
2024/01/28 03:45:06;;;;;;;1.98;0.98;;;;;;;;;;5071438;28;20048;-73
2024/01/28 03:47:36;;;;;;;2.42;1.08;;;;;;;;;;5071234;28;20048;-73
2024/01/28 03:50:07;;;;;;;1.88;1.02;;;;;;;;;;5071432;28;20072;-73
2024/01/28 03:52:36;;;;;;;3.30;1.02;;;;;;;;;;5071045;28;20066;-74
2024/01/28 03:55:07;;;;;;;1.70;0.82;;;;;;;;;;5071221;28;20140;-73
2024/01/28 03:57:40;;;;;;;2.15;1.10;;;;;;;;;;5071439;28;20059;-75
2024/01/28 04:00:07;;;;;;;1.92;1.05;;;;;;;;;;5069805;28;20135;-73
2024/01/28 04:02:38;;;;;;;1.98;1.10;;;;;;;;;;5070901;28;20048;-74
2024/01/28 04:05:08;;;;;;;2.08;1.13;;;;;;;;;;5071279;28;20060;-73
2024/01/28 04:07:38;;;;;;;4.72;1.17;;;;;;;;;;5071609;28;20110;-73
2024/01/28 04:10:08;;;;;;;1.80;1.10;;;;;;;;;;5070782;28;20601;-75
2024/01/28 04:12:38;;;;;;;1.85;1.13;;;;;;;;;;5070593;28;20059;-73
2024/01/28 04:15:08;;;;;;;4.90;1.30;;;;;;;;;;5070923;28;20124;-73
2024/01/28 04:17:35;;;;;;;2.85;1.08;;;;;;;;;;5070674;28;20102;-75
2024/01/28 04:20:04;;;;;;;1.98;1.10;;;;;;;;;;5071108;28;20048;-73
2024/01/28 04:22:34;;;;;;;2.05;1.10;;;;;;;;;;5070619;28;20044;-74
2024/01/28 04:25:03;;;;;;;2.95;1.10;;;;;;;;;;5070324;28;20045;-73
2024/01/28 04:27:30;;;;;;;1.63;0.95;;;;;;;;;;5070805;28;20079;-75
2024/01/28 04:29:57;;;;;;;1.67;1.10;;;;;;;;;;5070750;28;20049;-74
2024/01/28 04:32:23;;;;;;;2.17;1.10;;;;;;;;;;5070799;28;20059;-75
2024/01/28 04:34:50;;;;;;;2.85;1.13;;;;;;;;;;5070569;28;20084;-74
2024/01/28 04:37:17;;;;;;;3.05;1.30;;;;;;;;;;5071554;28;20488;-74
2024/01/28 04:39:44;;;;;;;1.80;1.00;;;;;;;;;;5069826;28;20401;-73
2024/01/28 04:42:11;;;;;;;1.67;1.13;;;;;;;;;;5070793;28;20091;-74
2024/01/28 04:44:37;;;;;;;2.10;1.25;;;;;;;;;;5070047;28;20451;-74
2024/01/28 04:47:04;;;;;;;2.45;1.20;;;;;;;;;;5070089;28;20044;-72
2024/01/28 04:49:32;;;;;;;2.20;1.02;;;;;;;;;;5070316;28;20205;-74
2024/01/28 04:51:59;;;;;;;2.90;1.25;;;;;;;;;;5069748;28;20052;-74
2024/01/28 04:54:26;;;;;;;1.88;1.13;;;;;;;;;;5051844;28;20048;-73
2024/01/28 04:56:53;;;;;;;1.88;1.20;;;;;;;;;;5070296;28;20048;-76
2024/01/28 04:59:20;;;;;;;1.73;1.27;;;;;;;;;;5070319;28;20044;-73
2024/01/28 05:01:47;;;;;;;2.28;1.10;;;;;;;;;;5070103;28;20074;-73
2024/01/28 05:04:14;;;;;;;2.10;1.10;;;;;;;;;;5069969;28;20075;-74
2024/01/28 05:06:40;;;;;;;2.35;1.20;;;;;;;;;;5069613;28;20440;-73
2024/01/28 05:09:09;;;;;;;2.65;1.30;;;;;;;;;;5051543;28;20055;-72
2024/01/28 05:11:36;;;;;;;2.55;1.30;;;;;;;;;;5069530;28;20052;-73
2024/01/28 05:14:04;;;;;;;3.05;1.20;;;;;;;;;;5069708;28;20044;-73
2024/01/28 05:16:31;;;;;;;2.72;1.25;;;;;;;;;;5069491;28;20066;-72
2024/01/28 05:19:00;;;;;;;2.13;1.10;;;;;;;;;;5069852;28;20052;-74
2024/01/28 05:21:27;;;;;;;3.08;1.27;;;;;;;;;;5069375;28;20137;-74
2024/01/28 05:23:54;;;;;;;2.35;1.35;;;;;;;;;;5069044;28;20044;-74
2024/01/28 05:26:21;;;;;;;2.08;1.23;;;;;;;;;;5069554;28;20048;-73
2024/01/28 05:28:48;;;;;;;2.65;1.30;;;;;;;;;;5069543;28;20044;-75
2024/01/28 05:31:15;;;;;;;5.65;1.30;;;;;;;;;;5069487;28;20048;-73
2024/01/28 05:33:41;;;;;;;4.50;1.23;;;;;;;;;;5069233;28;20511;-73
2024/01/28 05:36:13;;;;;;;3.10;1.42;;;;;;;;;;5069125;28;20036;-73
2024/01/28 05:38:44;;;;;;;1.58;1.10;;;;;;;;;;5069223;28;20040;-73
2024/01/28 05:41:14;;;;;;;4.00;1.20;;;;;;;;;;5051187;28;20044;-76
2024/01/28 05:43:43;;;;;;;2.10;1.17;;;;;;;;;;5068965;28;20051;-75
2024/01/28 05:46:10;;;;;;;2.95;1.40;;;;;;;;;;5069207;28;20052;-73
2024/01/28 05:48:36;;;;;;;5.28;1.48;;;;;;;;;;5068857;28;20080;-72
2024/01/28 05:51:04;;;;;;;3.45;1.50;;;;;;;;;;5068979;28;20117;-75
2024/01/28 05:53:30;;;;;;;2.28;1.30;;;;;;;;;;5069209;28;20048;-74
2024/01/28 05:55:57;;;;;;;3.55;1.30;;;;;;;;;;5068584;28;20076;-73
2024/01/28 05:58:25;;;;;;;3.22;1.55;;;;;;;;;;5068993;28;20074;-72
2024/01/28 06:00:52;;;;;;;4.70;1.80;;;;;;;;;;5068973;28;20106;-74
2024/01/28 06:03:18;;;;;;;5.03;1.50;;;;;;;;;;5068708;28;20083;-74
2024/01/28 06:05:45;;;;;;;2.72;1.60;;;;;;;;;;5068591;28;20427;-73
2024/01/28 06:08:16;;;;;;;3.25;1.80;;;;;;;;;;5069063;28;20132;-73
2024/01/28 06:10:42;;;;;;;;;;;;;;;;;;5069022;28;20044;-75
2024/01/28 06:13:09;;;;;;;2.65;1.50;;;;;;;;;;5068449;28;19928;-73
2024/01/28 06:15:36;;;;;;;2.38;1.50;;;;;;;;;;5068295;28;20105;-72
2024/01/28 06:18:03;;;;;;;3.85;1.95;;;;;;;;;;5068913;28;20180;-72
2024/01/28 06:20:35;;;;;;;2.83;1.58;;;;;;;;;;5068748;28;20056;-72
2024/01/28 06:23:03;;;;;;;3.47;2.05;;;;;;;;;;5050468;28;20098;-73
2024/01/28 06:25:30;;;;;;;3.60;2.00;;;;;;;;;;5068026;28;20051;-73
2024/01/28 06:27:57;;;;;;;4.43;1.90;;;;;;;;;;5068779;28;20048;-72
2024/01/28 06:30:27;;;;;;;3.47;1.92;;;;;;;;;;5068641;28;20064;-73
2024/01/28 06:32:55;;;;;;;3.10;1.90;;;;;;;;;;5068453;28;20084;-73
2024/01/28 06:35:21;;;;;;;4.85;1.95;;;;;;;;;;5068108;28;20051;-74
2024/01/28 06:37:48;;;;;;;4.47;2.20;;;;;;;;;;5068094;28;20044;-73
2024/01/28 06:40:15;;;;;;;3.88;2.20;;;;;;;;;;5068201;28;20051;-73
2024/01/28 06:42:42;;;;;;;4.13;2.20;;;;;;;;;;5050531;28;20078;-73
2024/01/28 06:45:09;;;;;;;5.38;2.28;;;;;;;;;;5068321;28;20045;-73
2024/01/28 06:47:36;;;;;;;4.40;2.38;;;;;;;;;;5068095;28;20643;-72
2024/01/28 06:50:03;;;;;;;3.78;2.22;;;;;;;;;;5068426;28;20562;-73
2024/01/28 06:52:31;;;;;;;4.60;2.67;;;;;;;;;;5067770;28;20048;-73
2024/01/28 06:54:58;;;;;;;7.28;2.78;;;;;;;;;;5068308;28;20040;-73
2024/01/28 06:57:25;;;;;;;4.25;2.80;;;;;;;;;;5068304;28;20049;-74
2024/01/28 06:59:52;;;;;;;4.63;2.70;;;;;;;;;;5068393;28;20045;-76
2024/01/28 07:02:18;;;;;;;5.18;2.92;;;;;;;;;;5068496;28;20056;-76
2024/01/28 07:04:47;;;;;;;5.35;2.88;;;;;;;;;;5068211;28;20053;-77
2024/01/28 07:07:18;;;;;;;6.00;3.30;;;;;;;;;;5049993;28;20049;-75
2024/01/28 07:09:48;;;;;;;5.68;3.53;;;;;;;;;;5049984;28;20080;-74
2024/01/28 07:12:18;;;;;;;6.55;3.30;;;;;;;;;;5067922;28;20711;-77
2024/01/28 07:14:45;;;;;;;5.47;3.40;;;;;;;;;;5068046;28;20080;-74
2024/01/28 07:17:12;;;;;;;5.43;3.35;;;;;;;;;;5068040;28;20048;-71
2024/01/28 07:19:40;;;;;;;7.40;4.13;;;;;;;;;;5068254;28;20112;-76
2024/01/28 07:22:08;;;;;;;8.75;4.25;;;;;;;;;;5067827;28;20416;-74
2024/01/28 07:24:34;;;;;;;6.68;3.88;;;;;;;;;;5067969;28;20056;-75
2024/01/28 07:27:01;;;;;;;8.52;4.20;;;;;;;;;;5066423;28;20128;-74
2024/01/28 07:29:27;;;;;;;7.35;3.92;;;;;;;;;;5067540;28;20488;-74
2024/01/28 07:31:54;;;;;;;5.97;3.85;;;;;;;;;;5067383;28;20515;-75
2024/01/28 07:34:23;;;;;;;6.85;3.80;;;;;;;;;;5067739;28;20040;-74
2024/01/28 07:36:51;;;;;;;5.00;3.42;;;;;;;;;;5070782;28;20052;-74
2024/01/28 07:39:21;;;;;;;6.20;3.53;;;;;;;;;;5070806;28;20055;-76
2024/01/28 07:41:50;;;;;;;6.22;3.47;;;;;;;;;;5071195;28;20390;-77
2024/01/28 07:44:17;;;;;;;7.28;3.67;;;;;;;;;;5072217;28;20044;-74
2024/01/28 07:46:44;;;;;;;6.20;3.58;;;;;;;;;;5069842;28;20113;-75
2024/01/28 07:49:11;;;;;;;6.20;2.80;;;;;;;;;;5071865;28;20052;-74
2024/01/28 07:51:38;;;;;;;6.00;2.90;;;;;;;;;;5071112;28;20156;-74
2024/01/28 07:54:05;;;;;;;6.18;2.70;;;;;;;;;;5070736;28;20131;-74
2024/01/28 07:56:32;;;;;;;4.20;2.70;;;;;;;;;;5071915;28;20045;-75
2024/01/28 07:58:58;;;;;;;5.88;2.67;;;;;;;;;;5070917;28;20135;-74
2024/01/28 08:01:30;;;;;;;5.40;2.58;;;;;;;;;;5070914;28;20113;-77
2024/01/28 08:03:57;;;;;;;7.53;2.80;;;;;;;;;;5070865;28;20041;-75
2024/01/28 08:06:23;;;;;;;4.20;2.10;;;;;;;;;;5070928;28;20048;-75
2024/01/28 08:08:51;;;;;;;5.35;2.58;;;;;;;;;;5070410;28;20116;-74
2024/01/28 08:11:18;;;;;;;3.97;2.40;;;;;;;;;;5070559;28;20048;-78
2024/01/28 08:13:45;;;;;;;4.28;2.47;;;;;;;;;;5070677;28;20045;-75
2024/01/28 08:16:12;;;;;;;4.55;2.22;;;;;;;;;;5070411;28;20530;-74
2024/01/28 08:18:39;;;;;;;4.65;2.15;;;;;;;;;;5070660;28;20503;-78
2024/01/28 08:21:06;;;;;;;6.25;2.60;;;;;;;;;;5070386;28;20045;-75
2024/01/28 08:23:35;;;;;;;5.30;2.40;;;;;;;;;;5071249;28;20089;-75
2024/01/28 08:26:01;;;;;;;3.97;2.40;;;;;;;;;;5070232;28;20078;-76
2024/01/28 08:28:28;;;;;;;4.65;2.35;;;;;;;;;;5072635;28;20056;-77
2024/01/28 08:30:55;;;;;;;3.85;2.42;;;;;;;;;;5069978;28;20496;-72
2024/01/28 08:33:22;;;;;;;4.47;2.22;;;;;;;;;;5069931;28;20106;-75
2024/01/28 08:35:50;;;;;;;4.45;2.63;;;;;;;;;;5070209;28;20587;-73
2024/01/28 08:38:19;;;;;;;4.78;2.30;;;;;;;;;;5069067;28;20135;-80
2024/01/28 08:40:45;;;;;;;7.50;2.55;;;;;;;;;;5069930;28;20155;-75
2024/01/28 08:43:13;;;;;;;5.78;2.47;;;;;;;;;;5070617;28;20418;-74
2024/01/28 08:45:39;;;;;;;4.25;2.50;;;;;;;;;;5070502;28;20055;-74
2024/01/28 08:48:06;;;;;;;7.15;2.30;;;;;;;;;;5069448;28;20044;-78
2024/01/28 08:50:33;;;;;;;5.43;2.50;;;;;;;;;;5070349;28;20045;-76
2024/01/28 08:53:00;;;;;;;5.75;2.60;;;;;;;;;;5051974;28;20048;-78
2024/01/28 08:55:27;;;;;;;5.65;2.30;;;;;;;;;;5069576;28;20193;-78
2024/01/28 08:57:54;;;;;;;4.40;2.30;;;;;;;;;;5069691;28;20040;-76
2024/01/28 09:00:21;;;;;;;4.13;2.22;;;;;;;;;;5069800;28;20049;-78
2024/01/28 09:02:48;;;;;;;4.22;2.10;;;;;;;;;;5067496;28;20626;-75
2024/01/28 09:05:14;;;;;;;5.63;2.20;;;;;;;;;;5070054;28;20082;-75
2024/01/28 09:07:41;;;;;;;3.33;1.70;;;;;;;;;;5069765;28;20134;-74
2024/01/28 09:10:09;;;;;;;2.85;1.88;;;;;;;;;;5069375;28;20046;-75
2024/01/28 09:12:35;;;;;;;3.33;1.77;;;;;;;;;;5069232;28;20585;-74
2024/01/28 09:15:02;;;;;;;8.45;2.50;;;;;;;;;;5069361;28;20049;-74
2024/01/28 09:17:29;;;;;;;4.55;2.30;;;;;;;;;;5069187;28;20378;-74
2024/01/28 09:19:56;;;;;;;4.78;1.88;;;;;;;;;;5067892;28;20048;-73
2024/01/28 09:22:23;;;;;;;3.22;1.77;;;;;;;;;;5069602;28;20086;-76
2024/01/28 09:24:50;;;;;;;3.05;1.98;;;;;;;;;;5049022;28;20131;-75
2024/01/28 09:27:17;;;;;;;3.47;2.25;;;;;;;;;;5036787;28;20044;-74
2024/01/28 09:29:44;;;;;;;3.33;2.03;;;;;;;;;;5069026;28;20102;-74
2024/01/28 09:32:11;;;;;;;4.10;2.28;;;;;;;;;;5068046;28;20044;-75
2024/01/28 09:34:38;;;;;;;4.13;2.08;;;;;;;;;;5069022;28;20052;-76
2024/01/28 09:37:07;;;;;;;4.35;2.20;;;;;;;;;;5068809;28;20044;-76
2024/01/28 09:39:34;;;;;;;4.05;2.28;;;;;;;;;;5068766;28;20044;-76
2024/01/28 09:42:09;;;;;;;5.10;3.05;;;;;;;;;;5069072;28;20416;-76
2024/01/28 09:44:36;;;;;;;3.88;2.50;;;;;;;;;;5069581;28;20052;-75
2024/01/28 09:47:04;;;;;;;5.53;2.90;;;;;;;;;;5068670;28;20058;-76
2024/01/28 09:49:39;;;;;;;4.40;2.50;;;;;;;;;;5069624;28;20071;-76
2024/01/28 09:52:11;;;;;;;3.90;2.28;;;;;;;;;;5068490;28;20054;-77
2024/01/28 09:54:39;;;;;;;4.55;2.40;;;;;;;;;;5068281;28;20048;-77
2024/01/28 09:57:07;;;;;;;4.03;2.38;;;;;;;;;;5068416;28;20051;-75
2024/01/28 09:59:37;;;;;;;5.97;2.50;;;;;;;;;;5069195;28;20045;-74
2024/01/28 10:02:05;;;;;;;5.10;2.90;;;;;;;;;;5068442;28;20041;-76
2024/01/28 10:04:33;;;;;;;4.55;2.15;;;;;;;;;;5068867;28;20041;-76
2024/01/28 10:07:04;;;;;;;4.50;2.35;;;;;;;;;;5068576;28;20588;-76
2024/01/28 10:09:31;;;;;;;3.45;2.13;;;;;;;;;;5050064;28;20103;-74
2024/01/28 10:11:59;;;;;;;4.90;2.50;;;;;;;;;;5068496;28;20067;-78
2024/01/28 10:14:26;;;;;;;4.82;2.28;;;;;;;;;;5068417;28;20052;-76
2024/01/28 10:16:54;;;;;;;5.03;1.90;;;;;;;;;;5069020;28;20048;-76
2024/01/28 10:19:21;;;;;;;5.13;2.00;;;;;;;;;;5067869;28;20052;-76
2024/01/28 10:21:48;;;;;;;4.35;1.98;;;;;;;;;;5050791;28;20064;-76
2024/01/28 10:24:16;;;;;;;2.75;1.77;;;;;;;;;;5068159;28;20044;-74
2024/01/28 10:26:43;;;;;;;4.88;2.30;;;;;;;;;;5067416;28;20127;-76
2024/01/28 10:29:12;;;;;;;4.63;2.40;;;;;;;;;;5070660;28;20500;-76
2024/01/28 10:31:39;;;;;;;4.53;1.85;;;;;;;;;;5067783;28;20098;-75
2024/01/28 10:34:08;;;;;;;3.08;1.92;;;;;;;;;;5067245;28;20127;-75
2024/01/28 10:36:36;;;;;;;4.50;2.47;;;;;;;;;;5067486;28;20479;-75
2024/01/28 10:39:04;;;;;;;3.38;1.95;;;;;;;;;;5065710;28;20080;-76
2024/01/28 10:41:32;;;;;;;3.78;1.80;;;;;;;;;;5066672;28;20045;-76
2024/01/28 10:44:07;;;;;;;3.50;1.90;;;;;;;;;;5066622;28;20086;-76
2024/01/28 10:46:41;;;;;;;4.20;1.90;;;;;;;;;;5048892;28;20072;-75
2024/01/28 10:49:09;;;;;;;4.60;2.63;;;;;;;;;;5066280;28;20524;-76
2024/01/28 10:51:39;;;;;;;3.90;2.10;;;;;;;;;;5067098;28;20135;-75
2024/01/28 10:54:07;;;;;;;2.97;1.90;;;;;;;;;;5067436;28;20052;-75
2024/01/28 10:56:37;;;;;;;4.00;1.92;;;;;;;;;;5068630;28;20040;-76
2024/01/28 10:59:04;;;;;;;7.13;2.10;;;;;;;;;;5048692;28;20076;-77
2024/01/28 11:01:33;;;;;;;5.25;1.90;;;;;;;;;;5068320;28;20102;-77
2024/01/28 11:04:02;;;;;;;3.72;1.80;;;;;;;;;;5068425;28;20045;-75
2024/01/28 11:06:33;;;;;;;4.88;2.00;;;;;;;;;;5073077;28;20045;-74
2024/01/28 11:09:03;;;;;;;5.30;2.25;;;;;;;;;;5069603;28;20554;-74
2024/01/28 11:11:33;;;;;;;3.47;1.60;;;;;;;;;;5074910;28;20047;-75
2024/01/28 11:14:07;;;;;;;3.72;1.90;;;;;;;;;;5074373;28;20052;-77
2024/01/28 11:16:37;;;;;;;3.83;1.63;;;;;;;;;;5054682;28;20106;-77
2024/01/28 11:19:06;;;;;;;2.83;2.00;;;;;;;;;;5075267;28;20040;-81
2024/01/28 11:21:34;;;;;;;4.10;1.88;;;;;;;;;;5062042;28;20044;-79
2024/01/28 11:24:14;;;;;;;5.05;1.90;;;;;;;;;;5076663;28;20045;-81
2024/01/28 11:26:45;;;;;;;3.83;2.13;;;;;;;;;;5073794;28;20082;-77
2024/01/28 11:29:12;;;;;;;3.97;2.15;;;;;;;;;;5071558;28;20481;-74
2024/01/28 11:31:40;;;;;;;4.03;2.05;;;;;;;;;;5071725;28;20496;-76
2024/01/28 11:34:20;;;;;;;3.88;1.95;;;;;;;;;;5071256;28;20048;-76
2024/01/28 11:36:52;;;;;;;4.95;2.08;;;;;;;;;;5070507;28;20051;-76
2024/01/28 11:39:46;;;;;;;4.78;2.10;;;;;;;;;;5071034;28;20409;-77
2024/01/28 11:42:13;;;;;;;2.67;1.83;;;;;;;;;;5067742;28;20109;-77
2024/01/28 11:44:42;;;;;;;4.30;2.05;;;;;;;;;;5069768;28;20689;-75
2024/01/28 11:47:17;;;;;;;3.40;1.90;;;;;;;;;;5071233;28;20411;-76
2024/01/28 11:49:44;;;;;;;5.25;2.17;;;;;;;;;;5070985;28;20440;-76
2024/01/28 11:52:11;;;;;;;2.80;1.58;;;;;;;;;;5069767;28;20427;-76
2024/01/28 11:54:38;;;;;;;3.10;1.77;;;;;;;;;;5069424;28;20045;-75
2024/01/28 11:57:06;;;;;;;4.22;1.85;;;;;;;;;;5070973;28;20045;-75
2024/01/28 11:59:33;;;;;;;3.17;1.70;;;;;;;;;;5070589;28;20040;-76
2024/01/28 12:02:04;;;;;;;2.60;1.55;;;;;;;;;;5071146;28;20665;-75
2024/01/28 12:04:31;;;;;;;;;;;;;;;;;;5071102;28;20140;-76
2024/01/28 12:06:59;;;;;;;3.85;1.50;;;;;;;;;;5071744;28;19989;-76
2024/01/28 12:09:29;;;;;;;2.90;1.55;;;;;;;;;;5068468;28;20059;-75
2024/01/28 12:11:57;;;;;;;;;;;;;;;;;;5053139;28;20068;-76
2024/01/28 12:14:26;;;;;;;4.65;1.60;;;;;;;;;;5053235;28;19920;-75
2024/01/28 12:16:55;;;;;;;8.32;1.65;;;;;;;;;;5049288;28;20049;-76
2024/01/28 12:19:23;;;;;;;2.58;1.40;;;;;;;;;;5065385;28;20041;-74
2024/01/28 12:21:50;;;;;;;3.05;1.40;;;;;;;;;;5069517;28;20048;-75
2024/01/28 12:24:16;;;;;;;1.95;1.35;;;;;;;;;;5074132;28;20101;-74
2024/01/28 12:26:45;;;;;;;2.92;1.70;;;;;;;;;;5063238;28;20037;-76
2024/01/28 12:29:13;;;;;;;4.57;1.40;;;;;;;;;;5052770;28;20052;-78
2024/01/28 12:31:40;;;;;;;5.00;1.80;;;;;;;;;;5068295;28;20258;-74
2024/01/28 12:34:15;;;;;;;3.28;1.58;;;;;;;;;;5067292;28;20041;-75
2024/01/28 12:36:43;;;;;;;2.90;1.35;;;;;;;;;;5066131;28;20049;-76
2024/01/28 12:39:09;;;;;;;3.13;1.42;;;;;;;;;;5068481;28;20236;-74
2024/01/28 12:41:37;;;;;;;4.35;1.42;;;;;;;;;;5052280;28;20098;-76
2024/01/28 12:44:04;;;;;;;3.25;1.70;;;;;;;;;;5052527;28;20075;-75
2024/01/28 12:46:32;;;;;;;3.60;1.73;;;;;;;;;;5075146;28;20044;-75
2024/01/28 12:48:59;;;;;;;3.65;1.75;;;;;;;;;;5069927;28;20051;-75
2024/01/28 12:51:26;;;;;;;4.05;1.50;;;;;;;;;;5070191;28;20057;-75
2024/01/28 12:53:53;;;;;;;3.13;1.38;;;;;;;;;;5069718;28;20513;-75
2024/01/28 12:56:21;;;;;;;2.95;1.45;;;;;;;;;;5070206;28;20412;-76
2024/01/28 12:58:48;;;;;;;2.67;1.30;;;;;;;;;;5069777;28;20091;-77
2024/01/28 13:01:15;;;;;;;3.42;1.60;;;;;;;;;;5070228;28;20048;-79
2024/01/28 13:03:43;;;;;;;2.95;1.60;;;;;;;;;;5069742;28;20052;-75
2024/01/28 13:06:09;;;;;;;2.10;1.20;;;;;;;;;;5069766;28;20053;-71
2024/01/28 13:08:36;;;;;;;2.60;1.23;;;;;;;;;;5070218;28;20416;-76
2024/01/28 13:11:04;;;;;;;2.40;1.40;;;;;;;;;;5069292;28;20074;-77
2024/01/28 13:13:33;;;;;;;3.65;1.40;;;;;;;;;;5069997;28;20514;-72
2024/01/28 13:16:00;;;;;;;3.53;1.60;;;;;;;;;;5069603;28;20481;-72
2024/01/28 13:18:28;;;;;;;3.20;1.65;;;;;;;;;;5069828;28;20048;-78
2024/01/28 13:21:01;;;;;;;3.38;1.50;;;;;;;;;;5069397;28;20044;-74
2024/01/28 13:23:28;;;;;;;2.70;1.30;;;;;;;;;;5069350;28;20404;-73
2024/01/28 13:25:55;;;;;;;4.10;1.50;;;;;;;;;;5069079;28;20658;-74
2024/01/28 13:28:22;;;;;;;3.05;1.50;;;;;;;;;;5069589;28;20045;-73
2024/01/28 13:30:49;;;;;;;2.70;1.40;;;;;;;;;;5076488;28;20055;-74
2024/01/28 13:33:15;;;;;;;5.78;1.50;;;;;;;;;;5079404;28;20088;-75
2024/01/28 13:35:42;;;;;;;2.47;1.45;;;;;;;;;;5079684;28;20074;-73
2024/01/28 13:38:09;;;;;;;4.97;1.63;;;;;;;;;;5080598;28;20612;-75
2024/01/28 13:40:36;;;;;;;4.35;1.77;;;;;;;;;;5080063;28;20044;-75
2024/01/28 13:43:03;;;;;;;2.42;1.50;;;;;;;;;;5079864;28;20107;-73
2024/01/28 13:45:29;;;;;;;2.75;1.60;;;;;;;;;;5080503;28;20080;-74
2024/01/28 13:47:56;;;;;;;4.43;1.70;;;;;;;;;;5080951;28;20056;-72
2024/01/28 13:50:23;;;;;;;4.15;1.88;;;;;;;;;;5080343;28;20036;-73
2024/01/28 13:52:50;;;;;;;3.33;1.60;;;;;;;;;;5080383;28;20076;-74
2024/01/28 13:55:17;;;;;;;5.68;1.60;;;;;;;;;;5062291;28;20379;-75
2024/01/28 13:57:43;;;;;;;3.83;1.67;;;;;;;;;;5080742;28;20111;-74
2024/01/28 14:00:11;;;;;;;3.78;1.88;;;;;;;;;;5080511;28;20098;-74
2024/01/28 14:02:40;;;;;;;3.30;1.65;;;;;;;;;;5080486;28;20070;-72
2024/01/28 14:05:10;;;;;;;3.50;1.58;;;;;;;;;;5080420;28;20107;-76
2024/01/28 14:07:37;;;;;;;4.53;1.70;;;;;;;;;;5079251;28;20060;-74
2024/01/28 14:10:05;;;;;;;3.80;1.60;;;;;;;;;;5079700;28;20040;-74
2024/01/28 14:12:31;;;;;;;4.57;1.60;;;;;;;;;;5080263;28;20087;-74
2024/01/28 14:14:58;;;;;;;5.47;1.98;;;;;;;;;;5080210;28;20130;-74
2024/01/28 14:17:25;;;;;;;4.18;1.83;;;;;;;;;;5080145;28;20050;-74
2024/01/28 14:19:52;;;;;;;3.08;1.60;;;;;;;;;;5080462;28;20045;-73
2024/01/28 14:22:19;;;;;;;3.83;1.52;;;;;;;;;;5080489;28;20051;-74
2024/01/28 14:24:46;;;;;;;4.90;1.60;;;;;;;;;;5079654;28;20043;-73
2024/01/28 14:27:13;;;;;;;5.93;1.58;;;;;;;;;;5079382;28;20107;-76
2024/01/28 14:29:40;;;;;;;2.85;1.38;;;;;;;;;;5079941;28;20083;-73
2024/01/28 14:32:06;;;;;;;3.08;1.50;;;;;;;;;;5079917;28;20233;-73
2024/01/28 14:34:33;;;;;;;3.03;1.42;;;;;;;;;;5080039;28;20056;-74
2024/01/28 14:37:01;;;;;;;2.42;1.30;;;;;;;;;;5060089;28;20056;-74
2024/01/28 14:39:30;;;;;;;2.92;1.42;;;;;;;;;;5059755;28;20044;-74
2024/01/28 14:42:01;;;;;;;3.28;1.45;;;;;;;;;;5059272;28;20091;-73
2024/01/28 14:44:29;;;;;;;2.83;1.45;;;;;;;;;;5072701;28;20041;-73
2024/01/28 14:46:57;;;;;;;2.55;1.20;;;;;;;;;;5079915;28;20336;-75